Time;durP1;ratioP1;P1;durP2;ratioP2;P2;SDS_P1;SDS_P2;PMS_P1;PMS_P2;Temp;Humidity;BMP_temperature;BMP_pressure;BME280_temperature;BME280_humidity;BME280_pressure;Samples;Min_cycle;Max_cycle;Signal;HPM_P1;HPM_P2
2022/08/11 00:01:44;;;;;;;;;;;;;;;22.93;68.89;100081.41;5073520;28;19966;-85
2022/08/11 00:04:10;;;;;;;;;;;;;;;22.92;69.23;100076.97;5074709;28;19916;-85
2022/08/11 00:06:36;;;;;;;;;;;;;;;22.91;69.60;100086.72;5075078;28;19920;-86
2022/08/11 00:09:09;;;;;;;;;;;;;;;22.97;68.81;100079.25;5073083;28;19932;-84
2022/08/11 00:11:51;;;;;;;;;;;;;;;22.85;69.28;100073.50;5073637;28;20373;-86
2022/08/11 00:14:17;;;;;;;;;;;;;;;22.82;69.63;100072.38;5073698;28;19938;-85
2022/08/11 00:16:45;;;;;;;;;;;;;;;22.84;69.61;100067.03;5074405;28;20402;-86
2022/08/11 00:19:20;;;;;;;;;;;;;;;22.84;69.36;100061.38;5072552;28;20764;-86
2022/08/11 00:21:48;;;;;;;;;;;;;;;22.89;69.32;100058.00;5073095;28;19926;-85
2022/08/11 00:24:17;;;;;;;;;;;;;;;22.85;69.47;100062.97;5073518;28;20422;-90
2022/08/11 00:26:49;;;;;;;;;;;;;;;22.81;69.00;100059.44;5073614;28;19968;-86
2022/08/11 00:29:15;;;;;;;;;;;;;;;22.83;69.07;100062.63;5073022;28;19916;-85
2022/08/11 00:31:49;;;;;;;;;;;;;;;22.78;69.21;100066.00;5072590;28;19916;-84
2022/08/11 00:34:16;;;;;;;;;;;;;;;22.78;69.54;100065.22;5072812;28;19916;-87
2022/08/11 00:36:53;;;;;;;;;;;;;;;22.75;68.91;100067.72;5074589;28;20007;-84
2022/08/11 00:39:23;;;;;;;;;;;;;;;22.75;68.43;100061.25;5072889;28;19916;-84
2022/08/11 00:41:52;;;;;;;;;;;;;;;22.66;69.06;100061.88;5072798;28;20007;-84
2022/08/11 00:44:23;;;;;;;;;;;;;;;22.63;69.11;100056.31;5072996;28;19962;-86
2022/08/11 00:46:56;;;;;;;;;;;;;;;22.60;69.10;100057.22;5072745;28;19916;-84
2022/08/11 00:49:40;;;;;;;;;;;;;;;22.63;68.22;100059.16;5074009;28;19924;-84
2022/08/11 00:52:14;;;;;;;;;;;;;;;22.51;68.75;100054.22;5073335;28;19927;-84
2022/08/11 00:54:58;;;;;;;;;;;;;;;22.56;68.46;100059.34;5073239;28;19965;-84
2022/08/11 00:57:42;;;;;;;;;;;;;;;22.49;68.08;100058.31;5073131;28;19917;-88
2022/08/11 01:00:13;;;;;;;;;;;;;;;22.44;67.98;100050.34;5072675;28;20366;-85
2022/08/11 01:02:38;;;;;;;;;;;;;;;22.44;67.98;100053.19;5072482;28;19916;-87
2022/08/11 01:05:10;;;;;;;;;;;;;;;22.47;68.09;100049.44;5072413;28;20011;-85
2022/08/11 01:07:54;;;;;;;;;;;;;;;22.53;68.30;100054.56;5072520;28;19920;-86
2022/08/11 01:10:26;;;;;;;;;;;;;;;22.62;68.22;100057.56;5072407;28;19920;-85
2022/08/11 01:13:07;;;;;;;;;;;;;;;22.58;67.69;100057.66;5073286;28;20023;-86
2022/08/11 01:15:58;;;;;;;;;;;;;;;22.63;66.96;100059.16;5072829;28;20011;-85
2022/08/11 01:18:29;;;;;;;;;;;;;;;22.56;67.46;100060.16;5074246;28;19924;-85
2022/08/11 01:20:57;;;;;;;;;;;;;;;22.61;67.70;100068.09;5072675;28;20389;-85
2022/08/11 01:23:48;;;;;;;;;;;;;;;22.55;67.65;100064.22;5072974;28;20267;-84
2022/08/11 01:26:15;;;;;;;;;;;;;;;22.53;67.41;100061.06;5072178;28;19916;-84
2022/08/11 01:28:50;;;;;;;;;;;;;;;22.53;68.18;100057.41;5072197;28;19922;-85
2022/08/11 01:31:19;;;;;;;;;;;;;;;22.47;68.06;100057.94;5072813;28;19921;-87
2022/08/11 01:33:58;;;;;;;;;;;;;;;22.46;67.84;100056.38;5072560;28;19917;-86
2022/08/11 01:36:32;;;;;;;;;;;;;;;22.49;68.13;100066.81;5072893;28;19939;-84
2022/08/11 01:39:11;;;;;;;;;;;;;;;22.41;68.07;100061.78;5072282;28;19916;-84
2022/08/11 01:44:38;;;;;;;;;;;;;;;22.42;68.26;100050.00;5077114;28;20097;-83
2022/08/11 01:47:49;;;;;;;;;;;;;;;22.54;66.95;100051.31;5076131;28;19962;-90
2022/08/11 01:50:02;;;;;;;;;;;;;;;22.43;66.46;100056.47;5077517;28;20286;-85
2022/08/11 01:52:35;;;;;;;;;;;;;;;22.39;67.18;100056.56;5076033;28;19962;-84
2022/08/11 01:55:13;;;;;;;;;;;;;;;22.37;67.48;100047.72;5075898;28;19916;-85
2022/08/11 01:57:46;;;;;;;;;;;;;;;22.42;67.72;100052.03;5076219;28;20045;-85
2022/08/11 02:00:14;;;;;;;;;;;;;;;22.37;67.44;100046.91;5075827;28;20398;-84
2022/08/11 02:03:12;;;;;;;;;;;;;;;22.43;67.01;100050.81;5075373;28;19923;-84
2022/08/11 02:05:40;;;;;;;;;;;;;;;22.39;67.34;100048.06;5053388;28;19961;-84
2022/08/11 02:08:12;;;;;;;;;;;;;;;22.36;67.83;100051.78;5075972;28;20291;-85
2022/08/11 02:13:32;;;;;;;;;;;;;;;22.39;67.74;100045.25;5076780;28;19942;-84
2022/08/11 02:16:17;;;;;;;;;;;;;;;22.43;66.85;100042.31;5075591;28;19916;-85
2022/08/11 02:24:49;;;;;;;;;;;;;;;22.44;65.98;100041.84;5076548;28;20377;-85
2022/08/11 02:27:19;;;;;;;;;;;;;;;22.42;66.39;100035.81;5075931;28;20023;-85
2022/08/11 02:29:47;;;;;;;;;;;;;;;22.51;65.93;100034.38;5075306;28;19956;-85
2022/08/11 02:35:41;;;;;;;;;;;;;;;22.46;65.30;100033.69;5077424;28;19965;-84
2022/08/11 02:38:23;;;;;;;;;;;;;;;22.36;65.24;100036.81;5075137;28;19916;-85
2022/08/11 02:41:01;;;;;;;;;;;;;;;22.36;65.81;100036.81;5074774;28;20005;-84
2022/08/11 02:43:41;;;;;;;;;;;;;;;22.39;64.80;100033.91;5075347;28;19916;-85
2022/08/11 02:46:22;;;;;;;;;;;;;;;22.41;65.00;100030.59;5075289;28;19916;-85
2022/08/11 02:51:52;;;;;;;;;;;;;;;22.40;65.54;100032.66;5076770;28;20381;-85
2022/08/11 02:54:23;;;;;;;;;;;;;;;22.42;65.39;100026.53;5074660;28;19923;-86
2022/08/11 02:57:03;;;;;;;;;;;;;;;22.36;65.01;100023.44;5074778;28;19916;-83
2022/08/11 02:59:49;;;;;;;;;;;;;;;22.28;65.23;100026.94;5075267;28;19939;-85
2022/08/11 03:02:33;;;;;;;;;;;;;;;22.48;64.46;100030.44;5074806;28;19923;-84
2022/08/11 03:05:12;;;;;;;;;;;;;;;22.44;64.22;100019.19;5074655;28;19917;-85
2022/08/11 03:07:53;;;;;;;;;;;;;;;22.44;65.23;100022.00;5074564;28;19920;-85
2022/08/11 03:10:24;;;;;;;;;;;;;;;22.31;65.68;100026.81;5074014;28;19928;-85
2022/08/11 03:18:40;;;;;;;;;;;;;;;22.27;66.30;100026.16;5076021;28;19923;-85
2022/08/11 03:21:19;;;;;;;;;;;;;;;22.24;66.40;100021.34;5074379;28;19923;-85
2022/08/11 03:24:02;;;;;;;;;;;;;;;22.12;66.16;100016.44;5074797;28;19923;-84
2022/08/11 03:26:27;;;;;;;;;;;;;;;22.16;65.95;100017.16;5074592;28;19965;-85
2022/08/11 03:28:53;;;;;;;;;;;;;;;22.16;65.31;100019.97;5074098;28;19917;-84
2022/08/11 03:31:24;;;;;;;;;;;;;;;22.17;65.58;100016.69;5074168;28;19920;-85
2022/08/11 03:34:04;;;;;;;;;;;;;;;22.10;65.38;100027.38;5074141;28;19917;-84
2022/08/11 03:36:32;;;;;;;;;;;;;;;22.21;64.80;100022.25;5075634;28;19917;-85
2022/08/11 03:39:04;;;;;;;;;;;;;;;22.22;65.04;100018.19;5074865;28;19956;-85
2022/08/11 03:41:51;;;;;;;;;;;;;;;22.19;65.21;100019.88;5075525;28;19917;-85
2022/08/11 03:44:51;;;;;;;;;;;;;;;22.17;65.36;100018.72;5075237;28;20256;-86
2022/08/11 03:47:43;;;;;;;;;;;;;;;22.12;65.70;100013.59;5036936;28;19917;-85
2022/08/11 03:50:18;;;;;;;;;;;;;;;22.20;65.47;100023.50;5037514;28;19961;-85
2022/08/11 03:52:50;;;;;;;;;;;;;;;22.13;65.92;100020.84;5036516;28;20023;-84
2022/08/11 03:55:26;;;;;;;;;;;;;;;22.24;65.68;100027.03;5050313;28;19924;-83
2022/08/11 03:58:03;;;;;;;;;;;;;;;22.20;65.74;100020.66;5074986;28;19916;-84
2022/08/11 04:00:42;;;;;;;;;;;;;;;22.08;66.37;100024.19;5073541;28;19916;-85
2022/08/11 04:03:24;;;;;;;;;;;;;;;22.11;66.20;100029.03;5074149;28;19923;-84
2022/08/11 04:06:10;;;;;;;;;;;;;;;22.21;65.53;100025.06;5072730;28;19917;-85
2022/08/11 04:08:45;;;;;;;;;;;;;;;22.13;65.79;100026.53;5074031;28;19973;-83
2022/08/11 04:11:25;;;;;;;;;;;;;;;22.15;65.56;100024.03;5073179;28;19920;-84
2022/08/11 04:15:58;;;;;;;;;;;;;;;22.13;65.98;100029.34;5073588;28;20367;-85
2022/08/11 04:17:04;;;;;;;;;;;;;;;22.08;65.47;100027.81;5074234;28;19917;-85
2022/08/11 04:19:32;;;;;;;;;;;;;;;22.25;64.82;100033.50;5073199;28;20306;-84
2022/08/11 04:22:03;;;;;;;;;;;;;;;22.22;64.44;100029.53;5073695;28;19923;-86
2022/08/11 04:24:48;;;;;;;;;;;;;;;22.18;64.96;100023.94;5074088;28;20011;-84
2022/08/11 04:27:19;;;;;;;;;;;;;;;22.25;64.57;100037.13;5073118;28;20044;-84
2022/08/11 04:30:03;;;;;;;;;;;;;;;22.30;64.33;100032.94;5073885;28;20343;-85
2022/08/11 04:32:46;;;;;;;;;;;;;;;22.33;64.47;100034.91;5073780;28;19920;-84
2022/08/11 04:35:30;;;;;;;;;;;;;;;22.44;64.15;100032.56;5074336;28;19939;-84
2022/08/11 04:38:01;;;;;;;;;;;;;;;22.58;63.55;100034.19;5074259;28;19927;-84
2022/08/11 04:40:29;;;;;;;;;;;;;;;23.25;61.22;100037.06;5073846;28;19987;-85
2022/08/11 04:43:19;;;;;;;;;;;;;;;23.77;59.25;100041.50;5072907;28;19916;-85
2022/08/11 04:46:05;;;;;;;;;;;;;;;24.42;57.71;100034.41;5073721;28;19916;-84
2022/08/11 05:02:48;;;;;;;;;;;;;;;27.28;48.02;100049.72;5074524;28;19923;-85
2022/08/11 05:05:30;;;;;;;;;;;;;;;27.62;46.15;100054.16;5073113;28;20049;-85
2022/08/11 05:08:13;;;;;;;;;;;;;;;28.01;45.37;100056.34;5073538;28;19920;-85
2022/08/11 05:10:59;;;;;;;;;;;;;;;28.52;44.75;100053.31;5073619;28;19920;-85
2022/08/11 05:36:23;;;;;;;;;;;;;;;31.35;37.69;100058.41;5080902;28;19962;-85
2022/08/11 05:58:04;;;;;;;;;;;;;;;33.07;34.30;100061.88;5080932;28;19971;-87
2022/08/11 06:00:30;;;;;;;;;;;;;;;33.33;34.08;100073.19;5062509;28;19927;-87
2022/08/11 06:02:59;;;;;;;;;;;;;;;33.30;34.02;100069.25;5062369;28;19924;-85
2022/08/11 06:05:35;;;;;;;;;;;;;;;33.58;33.18;100065.59;5078756;28;20061;-86
2022/08/11 06:08:03;;;;;;;;;;;;;;;33.51;32.64;100069.03;5079180;28;19920;-87
2022/08/11 06:10:33;;;;;;;;;;;;;;;34.02;31.75;100063.97;5078710;28;19999;-87
2022/08/11 06:12:59;;;;;;;;;;;;;;;34.06;31.91;100064.47;5079889;28;19917;-86
2022/08/11 06:15:28;;;;;;;;;;;;;;;34.24;32.01;100060.19;5081954;28;19916;-86
2022/08/11 06:17:54;;;;;;;;;;;;;;;34.49;31.72;100061.19;5078872;28;19917;-86
2022/08/11 06:20:24;;;;;;;;;;;;;;;34.60;30.73;100069.78;5079283;28;19917;-87
2022/08/11 06:23:02;;;;;;;;;;;;;;;34.64;31.18;100068.19;5078766;28;19916;-86
2022/08/11 06:25:36;;;;;;;;;;;;;;;34.75;29.89;100067.34;5079922;28;20363;-86
2022/08/11 06:28:04;;;;;;;;;;;;;;;34.91;29.87;100069.34;5078250;28;19924;-85
2022/08/11 06:30:38;;;;;;;;;;;;;;;34.73;30.17;100063.41;5059096;28;19920;-87
2022/08/11 06:33:07;;;;;;;;;;;;;;;33.98;31.20;100064.22;5059546;28;19920;-87
2022/08/11 06:35:32;;;;;;;;;;;;;;;34.68;29.90;100079.47;5076732;28;20321;-86
2022/08/11 06:38:06;;;;;;;;;;;;;;;34.73;30.43;100067.09;5075918;28;19928;-86
2022/08/11 06:40:32;;;;;;;;;;;;;;;33.79;31.64;100072.66;5075357;28;19916;-86
2022/08/11 06:43:00;;;;;;;;;;;;;;;33.67;31.87;100076.88;5075218;28;19966;-85
2022/08/11 06:45:26;;;;;;;;;;;;;;;33.61;32.79;100073.19;5075566;28;20050;-85
2022/08/11 06:47:52;;;;;;;;;;;;;;;33.40;31.63;100068.97;5075860;28;20418;-86
2022/08/11 06:53:09;;;;;;;;;;;;;;;34.31;31.92;100068.34;5076586;28;19970;-86
2022/08/11 07:01:09;;;;;;;;;;;;;;;33.50;32.54;100076.88;5076752;28;20008;-86
2022/08/11 07:03:37;;;;;;;;;;;;;;;33.76;32.23;100079.47;5058876;28;19946;-87
2022/08/11 07:06:06;;;;;;;;;;;;;;;34.43;31.25;100074.84;5075064;28;20011;-86
2022/08/11 07:17:25;;;;;;;;;;;;;;;34.66;30.38;100082.09;5076303;28;19963;-86
2022/08/11 07:31:05;;;;;;;;;;;;;;;34.35;32.09;100081.16;5076265;28;19970;-85
2022/08/11 07:33:43;;;;;;;;;;;;;;;33.58;33.78;100082.91;5074571;28;19916;-84
2022/08/11 07:36:11;;;;;;;;;;;;;;;34.73;31.37;100086.50;5075573;28;19916;-84
2022/08/11 07:38:51;;;;;;;;;;;;;;;35.15;30.47;100082.31;5073978;28;19916;-86
2022/08/11 07:41:18;;;;;;;;;;;;;;;35.28;31.27;100079.59;5073215;28;19969;-85
2022/08/11 07:43:48;;;;;;;;;;;;;;;34.66;31.77;100082.09;5074327;28;19920;-85
2022/08/11 07:54:26;;;;;;;;;;;;;;;34.21;32.42;100076.50;5075805;28;19922;-85
2022/08/11 07:56:52;;;;;;;;;;;;;;;34.29;31.56;100080.41;5074582;28;19923;-83
2022/08/11 08:18:35;;;;;;;;;;;;;;;35.60;28.66;100079.09;5074795;28;19924;-85
2022/08/11 08:21:10;;;;;;;;;;;;;;;35.74;27.51;100080.00;5073730;28;20422;-84
2022/08/11 08:23:37;;;;;;;;;;;;;;;35.91;27.17;100086.44;5074686;28;19920;-84
2022/08/11 08:26:57;;;;;;;;;;;;;;;36.33;27.76;100089.91;5073319;28;19916;-83
2022/08/11 08:28:50;;;;;;;;;;;;;;;36.49;26.64;100088.16;5074170;28;19924;-85
2022/08/11 08:31:19;;;;;;;;;;;;;;;36.38;26.89;100089.88;5072941;28;20014;-84
2022/08/11 08:33:47;;;;;;;;;;;;;;;35.75;27.32;100085.28;5072852;28;19917;-83
2022/08/11 08:36:15;;;;;;;;;;;;;;;35.63;27.43;100080.91;5073364;28;19924;-85
2022/08/11 08:38:47;;;;;;;;;;;;;;;35.54;27.48;100078.38;5075237;28;19955;-84
2022/08/11 08:41:16;;;;;;;;;;;;;;;35.57;27.96;100071.50;5072883;28;19975;-84
2022/08/11 08:43:46;;;;;;;;;;;;;;;36.13;27.05;100076.72;5073297;28;20278;-83
2022/08/11 08:46:12;;;;;;;;;;;;;;;36.32;26.97;100070.97;5073177;28;20017;-85
2022/08/11 08:48:39;;;;;;;;;;;;;;;36.89;26.07;100077.63;5072633;28;19954;-83
2022/08/11 08:53:53;;;;;;;;;;;;;;;37.15;26.40;100080.66;5074006;28;19923;-84
2022/08/11 08:56:23;;;;;;;;;;;;;;;36.39;27.31;100076.94;5072781;28;19917;-84
2022/08/11 08:58:52;;;;;;;;;;;;;;;35.99;27.17;100072.16;5073178;28;19916;-84
2022/08/11 09:01:20;;;;;;;;;;;;;;;36.17;25.98;100071.44;5072620;28;19916;-83
2022/08/11 09:03:45;;;;;;;;;;;;;;;34.88;29.43;100070.41;5072547;28;19942;-83
2022/08/11 09:06:13;;;;;;;;;;;;;;;34.78;28.07;100060.47;5073416;28;19916;-83
2022/08/11 09:08:41;;;;;;;;;;;;;;;34.38;29.08;100065.66;5073463;28;19923;-82
2022/08/11 09:11:54;;;;;;;;;;;;;;;34.37;28.29;100061.22;5072024;28;19925;-84
2022/08/11 09:13:55;;;;;;;;;;;;;;;34.69;28.60;100057.94;5066185;28;20319;-83
2022/08/11 09:16:22;;;;;;;;;;;;;;;34.28;28.66;100064.38;5072402;28;20012;-83
2022/08/11 09:18:54;;;;;;;;;;;;;;;34.75;28.02;100058.66;5072851;28;20420;-83
2022/08/11 09:21:22;;;;;;;;;;;;;;;34.91;26.60;100057.78;5072381;28;19923;-82
2022/08/11 09:29:18;;;;;;;;;;;;;;;36.96;25.75;100059.59;5073867;28;19923;-82
2022/08/11 09:31:45;;;;;;;;;;;;;;;36.96;24.89;100063.25;5072344;28;19924;-83
2022/08/11 09:34:12;;;;;;;;;;;;;;;37.00;24.83;100059.28;5072716;28;20370;-83
2022/08/11 09:42:11;;;;;;;;;;;;;;;36.45;25.50;100057.41;5074126;28;20006;-83
2022/08/11 09:44:49;;;;;;;;;;;;;;;36.95;25.24;100055.91;5072381;28;20412;-83
2022/08/11 09:47:17;;;;;;;;;;;;;;;37.65;24.13;100057.94;5072175;28;19916;-82
2022/08/11 09:49:47;;;;;;;;;;;;;;;38.03;23.86;100055.63;5074620;28;19922;-82
2022/08/11 09:52:13;;;;;;;;;;;;;;;37.32;24.18;100057.16;5084539;28;19923;-84
2022/08/11 09:54:40;;;;;;;;;;;;;;;37.55;24.10;100050.97;5077222;28;19917;-82
2022/08/11 09:59:50;;;;;;;;;;;;;;;36.48;25.65;100049.72;5072018;28;19928;-82
2022/08/11 10:02:19;;;;;;;;;;;;;;;36.20;25.61;100050.84;5073068;28;20019;-82
2022/08/11 10:04:45;;;;;;;;;;;;;;;35.50;26.41;100046.06;5075268;28;19920;-83
2022/08/11 10:07:14;;;;;;;;;;;;;;;34.74;27.57;100039.78;5077027;28;19962;-82
2022/08/11 10:09:48;;;;;;;;;;;;;;;34.32;28.74;100053.34;5075306;28;19921;-81
2022/08/11 10:12:29;;;;;;;;;;;;;;;34.21;28.05;100052.63;5075590;28;19916;-82
2022/08/11 10:20:34;;;;;;;;;;;;;;;35.88;26.79;100030.38;5077420;28;20247;-81
2022/08/11 10:28:33;;;;;;;;;;;;;;;34.96;28.01;100017.84;5076779;28;20282;-82
2022/08/11 10:33:59;;;;;;;;;;;;;;;35.72;26.78;100016.88;5077075;28;20049;-82
2022/08/11 10:36:28;;;;;;;;;;;;;;;36.68;25.77;100013.59;5076449;28;19970;-82
2022/08/11 10:38:57;;;;;;;;;;;;;;;36.72;25.54;100016.97;5075183;28;20438;-82
2022/08/11 10:44:09;;;;;;;;;;;;;;;37.80;24.74;100008.03;5076547;28;19961;-82
2022/08/11 10:49:19;;;;;;;;;;;;;;;37.00;26.10;100007.09;5076540;28;19970;-82
2022/08/11 11:00:05;;;;;;;;;;;;;;;35.88;26.39;99991.97;5076185;28;20316;-81
2022/08/11 11:02:33;;;;;;;;;;;;;;;35.08;27.34;99982.50;5075245;28;20389;-81
2022/08/11 11:05:08;;;;;;;;;;;;;;;35.65;27.55;99985.69;5074884;28;19963;-82
2022/08/11 11:07:48;;;;;;;;;;;;;;;35.41;27.72;99977.72;5076342;28;19924;-82
2022/08/11 11:10:17;;;;;;;;;;;;;;;35.52;27.28;99965.28;5057637;28;19958;-82
2022/08/11 11:18:23;;;;;;;;;;;;;;;34.52;28.69;99961.91;5076439;28;20072;-81
2022/08/11 11:20:57;;;;;;;;;;;;;;;35.39;27.40;99960.94;5074950;28;20255;-81
2022/08/11 11:23:22;;;;;;;;;;;;;;;35.75;27.55;99962.94;5074694;28;20256;-82
2022/08/11 11:26:05;;;;;;;;;;;;;;;35.82;27.40;99957.31;5074557;28;19924;-82
2022/08/11 11:28:49;;;;;;;;;;;;;;;35.86;26.51;99957.81;5074471;28;19916;-82
2022/08/11 11:31:33;;;;;;;;;;;;;;;36.24;26.27;99954.97;5074534;28;19917;-81
2022/08/11 11:34:04;;;;;;;;;;;;;;;35.80;26.72;99950.53;5074929;28;19951;-82
2022/08/11 11:36:44;;;;;;;;;;;;;;;35.64;26.76;99943.59;5074372;28;19917;-81
2022/08/11 11:39:09;;;;;;;;;;;;;;;35.60;26.98;99929.44;5078527;28;19923;-82
2022/08/11 11:41:38;;;;;;;;;;;;;;;35.26;27.44;99940.53;5075889;28;19924;-81
2022/08/11 11:44:05;;;;;;;;;;;;;;;35.22;27.14;99937.19;5074405;28;19917;-81
2022/08/11 11:46:34;;;;;;;;;;;;;;;35.13;27.54;99934.63;5073946;28;20355;-81
2022/08/11 11:49:07;;;;;;;;;;;;;;;35.26;27.44;99931.09;5074207;28;20013;-81
2022/08/11 11:51:33;;;;;;;;;;;;;;;35.76;27.39;99927.66;5075161;28;19963;-81
2022/08/11 11:54:01;;;;;;;;;;;;;;;36.22;28.98;99925.75;5057415;28;19951;-81
2022/08/11 11:56:27;;;;;;;;;;;;;;;35.97;29.76;99924.28;5073773;28;19950;-81
2022/08/11 12:01:38;;;;;;;;;;;;;;;35.48;31.19;99912.72;5075294;28;20472;-81
2022/08/11 12:04:07;;;;;;;;;;;;;;;36.02;30.01;99914.75;5074084;28;19931;-81
2022/08/11 12:06:35;;;;;;;;;;;;;;;35.24;31.06;99917.19;5073680;28;20007;-81
2022/08/11 12:09:01;;;;;;;;;;;;;;;35.37;31.86;99919.41;5073747;28;19916;-82
2022/08/11 12:14:11;;;;;;;;;;;;;;;35.18;31.82;99917.25;5075072;28;19923;-81
2022/08/11 12:16:39;;;;;;;;;;;;;;;35.01;32.43;99912.94;5073627;28;19921;-81
2022/08/11 12:19:05;;;;;;;;;;;;;;;34.73;34.23;99913.97;5073840;28;19939;-81
2022/08/11 12:21:34;;;;;;;;;;;;;;;34.39;34.40;99913.38;5057009;28;20385;-81
2022/08/11 12:29:25;;;;;;;;;;;;;;;35.05;33.50;99911.34;5074819;28;19967;-81
2022/08/11 12:31:52;;;;;;;;;;;;;;;34.85;33.42;99908.88;5073256;28;19917;-81
2022/08/11 12:34:19;;;;;;;;;;;;;;;35.04;32.74;99914.75;5056646;28;19920;-81
2022/08/11 12:36:56;;;;;;;;;;;;;;;34.80;33.67;99910.47;5074624;28;20263;-81
2022/08/11 12:53:17;;;;;;;;;;;;;;;34.02;35.30;99879.25;5074535;28;20325;-81
2022/08/11 12:58:29;;;;;;;;;;;;;;;33.55;36.91;99888.59;5074742;28;19926;-80
2022/08/11 13:06:32;;;;;;;;;;;;;;;33.70;35.70;99876.75;5074441;28;19938;-81
2022/08/11 13:08:58;;;;;;;;;;;;;;;34.03;35.47;99875.03;5073044;28;20011;-81
2022/08/11 13:14:11;;;;;;;;;;;;;;;34.52;35.07;99876.06;5074276;28;19924;-81
2022/08/11 13:17:20;;;;;;;;;;;;;;;34.58;34.99;99868.13;5072689;28;19920;-81
2022/08/11 13:19:27;;;;;;;;;;;;;;;34.83;34.04;99866.03;5073869;28;19939;-81
2022/08/11 13:21:56;;;;;;;;;;;;;;;34.19;34.79;99862.59;5073182;28;20379;-81
2022/08/11 13:24:27;;;;;;;;;;;;;;;34.27;34.69;99857.81;5074329;28;19916;-81
2022/08/11 13:26:56;;;;;;;;;;;;;;;34.04;34.97;99847.75;5057043;28;19921;-80
2022/08/11 13:29:25;;;;;;;;;;;;;;;33.43;34.72;99845.94;5072505;28;19966;-80
2022/08/11 13:32:00;;;;;;;;;;;;;;;33.81;34.26;99852.84;5072382;28;19917;-80
2022/08/11 13:34:26;;;;;;;;;;;;;;;34.05;33.25;99850.09;5072932;28;19971;-80
2022/08/11 13:36:55;;;;;;;;;;;;;;;33.41;33.66;99854.31;5073336;28;19916;-81
2022/08/11 13:39:24;;;;;;;;;;;;;;;33.54;33.74;99848.78;5076639;28;19922;-81
2022/08/11 13:41:49;;;;;;;;;;;;;;;33.80;33.26;99848.38;5076331;28;19917;-80
2022/08/11 13:44:16;;;;;;;;;;;;;;;33.98;32.98;99849.88;5076265;28;19923;-81
2022/08/11 13:46:42;;;;;;;;;;;;;;;33.81;33.26;99856.50;5076856;28;19920;-80
2022/08/11 13:49:10;;;;;;;;;;;;;;;34.06;33.25;99845.13;5076280;28;20495;-81
2022/08/11 13:51:37;;;;;;;;;;;;;;;33.55;34.81;99850.34;5076751;28;20347;-81
2022/08/11 13:54:09;;;;;;;;;;;;;;;33.37;34.68;99840.94;5076114;28;20061;-81
2022/08/11 13:56:35;;;;;;;;;;;;;;;33.59;34.61;99847.97;5076096;28;19923;-81
2022/08/11 13:59:02;;;;;;;;;;;;;;;33.53;35.20;99850.88;5076308;28;19982;-81
2022/08/11 14:01:39;;;;;;;;;;;;;;;32.93;36.97;99849.72;5076618;28;20286;-80
2022/08/11 14:04:08;;;;;;;;;;;;;;;33.18;36.98;99865.88;5076144;28;19923;-81
2022/08/11 14:06:36;;;;;;;;;;;;;;;33.34;36.81;99853.53;5076522;28;20263;-81
2022/08/11 14:09:04;;;;;;;;;;;;;;;33.28;37.25;99852.75;5075653;28;19916;-81
2022/08/11 14:14:20;;;;;;;;;;;;;;;33.11;38.50;99846.28;5077623;28;19942;-81
2022/08/11 14:16:46;;;;;;;;;;;;;;;33.24;38.81;99852.28;5075675;28;19956;-80
2022/08/11 14:19:13;;;;;;;;;;;;;;;33.05;39.40;99833.97;5075952;28;19922;-80
2022/08/11 14:24:28;;;;;;;;;;;;;;;33.40;39.99;99841.19;5075767;28;20282;-80
2022/08/11 14:26:56;;;;;;;;;;;;;;;33.19;40.85;99829.22;5075532;28;19917;-80
2022/08/11 14:29:25;;;;;;;;;;;;;;;33.11;40.91;99826.88;5076015;28;20262;-81
2022/08/11 14:32:10;;;;;;;;;;;;;;;32.44;41.70;99823.28;5058502;28;19920;-81
2022/08/11 14:34:43;;;;;;;;;;;;;;;33.21;40.91;99801.44;5075666;28;19940;-80
2022/08/11 14:37:11;;;;;;;;;;;;;;;33.03;40.39;99807.78;5075911;28;19916;-81
2022/08/11 14:39:43;;;;;;;;;;;;;;;33.21;39.78;99801.44;5075270;28;19921;-80
2022/08/11 14:47:40;;;;;;;;;;;;;;;33.00;41.47;99803.06;5076791;28;20389;-80
2022/08/11 14:50:09;;;;;;;;;;;;;;;33.43;40.48;99808.44;5075300;28;20303;-80
2022/08/11 14:52:35;;;;;;;;;;;;;;;33.16;40.19;99805.13;5076050;28;19920;-80
2022/08/11 14:57:48;;;;;;;;;;;;;;;33.41;40.50;99819.72;5076318;28;19923;-80
2022/08/11 15:00:17;;;;;;;;;;;;;;;33.36;40.27;99818.41;5075214;28;20023;-81
2022/08/11 15:05:30;;;;;;;;;;;;;;;33.36;40.41;99813.44;5076395;28;19965;-81
2022/08/11 15:07:57;;;;;;;;;;;;;;;33.22;41.00;99816.63;5074857;28;20014;-80
2022/08/11 15:10:25;;;;;;;;;;;;;;;32.71;42.27;99816.72;5074710;28;19921;-80
2022/08/11 15:12:51;;;;;;;;;;;;;;;32.95;41.68;99824.03;5074971;28;20283;-80
2022/08/11 15:18:04;;;;;;;;;;;;;;;33.48;40.65;99814.19;5076433;28;20066;-80
2022/08/11 15:26:02;;;;;;;;;;;;;;;33.37;41.75;99815.00;5075605;28;20439;-81
2022/08/11 15:45:46;;;;;;;;;;;;;;;32.33;43.35;99821.97;5075721;28;20334;-80
2022/08/11 15:48:04;;;;;;;;;;;;;;;32.57;40.57;99835.06;5075843;28;19969;-80
2022/08/11 15:50:33;;;;;;;;;;;;;;;32.30;38.07;99840.25;5074326;28;20313;-80
2022/08/11 15:53:02;;;;;;;;;;;;;;;32.19;39.11;99846.00;5073598;28;19923;-79
2022/08/11 15:55:29;;;;;;;;;;;;;;;32.22;38.28;99836.31;5073672;28;19916;-80
2022/08/11 16:06:12;;;;;;;;;;;;;;;31.03;43.86;99827.75;5074990;28;19923;-80
2022/08/11 16:08:39;;;;;;;;;;;;;;;30.61;44.64;99826.41;5057612;28;19936;-80
2022/08/11 16:11:05;;;;;;;;;;;;;;;30.44;45.01;99842.72;5073122;28;19999;-80
2022/08/11 16:16:13;;;;;;;;;;;;;;;28.73;44.01;99850.19;5074730;28;19991;-80
2022/08/11 16:18:46;;;;;;;;;;;;;;;27.47;48.30;99859.00;5073706;28;19939;-80
2022/08/11 16:21:42;;;;;;;;;;;;;;;26.84;50.32;99856.03;5073541;28;20065;-79
2022/08/11 16:24:14;;;;;;;;;;;;;;;26.11;50.49;99868.44;5074379;28;19955;-79
2022/08/11 16:26:40;;;;;;;;;;;;;;;25.55;52.68;99860.34;5075009;28;19916;-80
2022/08/11 16:29:06;;;;;;;;;;;;;;;25.41;54.07;99861.78;5073757;28;19916;-80
2022/08/11 16:31:34;;;;;;;;;;;;;;;25.34;54.68;99870.63;5073044;28;19940;-80
2022/08/11 16:34:00;;;;;;;;;;;;;;;25.11;56.33;99865.50;5073313;28;19923;-80
2022/08/11 16:39:17;;;;;;;;;;;;;;;25.14;59.47;99884.47;5074527;28;20390;-78
2022/08/11 16:47:17;;;;;;;;;;;;;;;23.81;70.95;99920.03;5073993;28;20381;-81
2022/08/11 16:49:45;;;;;;;;;;;;;;;23.40;74.26;99936.00;5073455;28;20424;-87
2022/08/11 16:52:12;;;;;;;;;;;;;;;22.96;81.09;99947.16;5074440;28;19916;-85
2022/08/11 16:54:38;;;;;;;;;;;;;;;22.03;81.05;99928.44;5073314;28;20354;-83
2022/08/11 17:00:00;;;;;;;;;;;;;;;21.49;82.44;99963.03;5077590;28;19974;-80
2022/08/11 17:13:43;;;;;;;;;;;;;;;21.20;82.77;99977.88;5073806;28;19993;-81
2022/08/11 17:16:12;;;;;;;;;;;;;;;21.36;81.15;99957.28;5072511;28;19916;-82
2022/08/11 17:18:44;;;;;;;;;;;;;;;21.66;80.42;99968.22;5072536;28;19916;-81
2022/08/11 17:21:15;;;;;;;;;;;;;;;21.92;82.51;99982.53;5073500;28;19916;-83
2022/08/11 17:23:51;;;;;;;;;;;;;;;21.71;78.01;99970.53;5072479;28;19951;-82
2022/08/11 17:26:21;;;;;;;;;;;;;;;21.98;81.79;99973.03;5072284;28;19921;-83
2022/08/11 17:28:50;;;;;;;;;;;;;;;21.98;80.57;99972.25;5072892;28;19921;-83
2022/08/11 17:36:45;;;;;;;;;;;;;;;21.76;76.15;99982.56;5074193;28;19923;-81
2022/08/11 17:39:12;;;;;;;;;;;;;;;22.00;75.58;99978.28;5072591;28;19917;-80
2022/08/11 17:49:52;;;;;;;;;;;;;;;22.69;74.15;99989.28;5074043;28;19923;-80
2022/08/11 18:00:53;;;;;;;;;;;;;;;22.86;73.10;100033.34;5073886;28;19924;-82
2022/08/11 18:03:31;;;;;;;;;;;;;;;22.96;73.20;100037.94;5055248;28;19962;-82
2022/08/11 18:06:02;;;;;;;;;;;;;;;22.98;72.24;100024.09;5055307;28;19940;-81
